sensor_id;sensor_type;location;lat;lon;timestamp;noise_LAeq;noise_LA_min;noise_LA_max;noise_LA01;noise_LA95
66458;Laerm;56835;52.198;4.826;2023-05-15T00:00:02;53.45;52.02;54.84;;
66458;Laerm;56835;52.198;4.826;2023-05-15T00:00:15;53.48;51.63;54.84;;
66458;Laerm;56835;52.198;4.826;2023-05-15T00:00:25;53.49;51.97;54.67;;
66458;Laerm;56835;52.198;4.826;2023-05-15T00:00:36;53.46;51.87;54.80;;
66458;Laerm;56835;52.198;4.826;2023-05-15T00:00:49;53.47;51.83;54.66;;
66458;Laerm;56835;52.198;4.826;2023-05-15T00:00:59;53.44;51.81;54.78;;
66458;Laerm;56835;52.198;4.826;2023-05-15T00:01:10;53.49;51.91;55.02;;
66458;Laerm;56835;52.198;4.826;2023-05-15T00:01:20;53.51;52.05;54.83;;
66458;Laerm;56835;52.198;4.826;2023-05-15T00:01:30;53.46;52.11;55.05;;
66458;Laerm;56835;52.198;4.826;2023-05-15T00:01:41;53.48;51.77;54.74;;
66458;Laerm;56835;52.198;4.826;2023-05-15T00:01:51;53.54;51.99;55.35;;
66458;Laerm;56835;52.198;4.826;2023-05-15T00:02:01;53.50;52.00;54.81;;
66458;Laerm;56835;52.198;4.826;2023-05-15T00:02:12;53.43;50.61;54.70;;
66458;Laerm;56835;52.198;4.826;2023-05-15T00:02:23;53.49;51.86;55.13;;
66458;Laerm;56835;52.198;4.826;2023-05-15T00:02:33;53.46;51.83;54.79;;
66458;Laerm;56835;52.198;4.826;2023-05-15T00:02:44;53.44;51.91;54.99;;
66458;Laerm;56835;52.198;4.826;2023-05-15T00:02:54;53.46;51.96;55.08;;
66458;Laerm;56835;52.198;4.826;2023-05-15T00:03:06;53.53;51.90;54.81;;
66458;Laerm;56835;52.198;4.826;2023-05-15T00:03:16;53.46;51.93;54.97;;
66458;Laerm;56835;52.198;4.826;2023-05-15T00:03:27;53.46;51.92;54.84;;
66458;Laerm;56835;52.198;4.826;2023-05-15T00:03:37;53.49;51.90;54.89;;
66458;Laerm;56835;52.198;4.826;2023-05-15T00:03:47;53.42;51.87;54.83;;
66458;Laerm;56835;52.198;4.826;2023-05-15T00:03:57;53.49;52.10;54.96;;
66458;Laerm;56835;52.198;4.826;2023-05-15T00:04:08;53.52;51.89;54.85;;
66458;Laerm;56835;52.198;4.826;2023-05-15T00:04:18;53.52;52.03;55.22;;
66458;Laerm;56835;52.198;4.826;2023-05-15T00:04:28;53.54;52.23;54.81;;
66458;Laerm;56835;52.198;4.826;2023-05-15T00:04:38;53.59;51.84;54.97;;
66458;Laerm;56835;52.198;4.826;2023-05-15T00:04:49;53.53;51.64;54.80;;
66458;Laerm;56835;52.198;4.826;2023-05-15T00:04:59;53.39;51.83;55.20;;
66458;Laerm;56835;52.198;4.826;2023-05-15T00:05:09;53.47;52.01;55.01;;
66458;Laerm;56835;52.198;4.826;2023-05-15T00:05:20;53.61;52.19;54.94;;
66458;Laerm;56835;52.198;4.826;2023-05-15T00:05:30;53.50;51.78;54.73;;
66458;Laerm;56835;52.198;4.826;2023-05-15T00:05:40;53.50;51.81;54.82;;
66458;Laerm;56835;52.198;4.826;2023-05-15T00:05:51;53.48;51.86;54.81;;
66458;Laerm;56835;52.198;4.826;2023-05-15T00:06:01;53.51;52.04;54.94;;
66458;Laerm;56835;52.198;4.826;2023-05-15T00:06:11;53.55;52.10;54.75;;
66458;Laerm;56835;52.198;4.826;2023-05-15T00:06:22;53.55;51.97;54.70;;
66458;Laerm;56835;52.198;4.826;2023-05-15T00:06:32;53.50;51.87;54.82;;
66458;Laerm;56835;52.198;4.826;2023-05-15T00:06:42;53.56;52.19;55.32;;
66458;Laerm;56835;52.198;4.826;2023-05-15T00:06:53;53.55;51.33;54.99;;
66458;Laerm;56835;52.198;4.826;2023-05-15T00:07:03;53.59;51.45;54.80;;
66458;Laerm;56835;52.198;4.826;2023-05-15T00:07:13;53.66;51.81;54.96;;
66458;Laerm;56835;52.198;4.826;2023-05-15T00:07:24;53.45;51.82;54.60;;
66458;Laerm;56835;52.198;4.826;2023-05-15T00:07:34;53.50;51.76;54.84;;
66458;Laerm;56835;52.198;4.826;2023-05-15T00:07:45;53.47;51.87;55.00;;
66458;Laerm;56835;52.198;4.826;2023-05-15T00:07:55;53.50;51.75;54.79;;
66458;Laerm;56835;52.198;4.826;2023-05-15T00:08:05;53.47;51.84;55.28;;
66458;Laerm;56835;52.198;4.826;2023-05-15T00:08:16;53.49;51.59;55.14;;
66458;Laerm;56835;52.198;4.826;2023-05-15T00:08:26;53.48;51.97;55.29;;
66458;Laerm;56835;52.198;4.826;2023-05-15T00:08:36;53.54;51.95;54.90;;
66458;Laerm;56835;52.198;4.826;2023-05-15T00:08:46;53.49;51.58;54.82;;
66458;Laerm;56835;52.198;4.826;2023-05-15T00:08:56;53.48;51.28;55.06;;
66458;Laerm;56835;52.198;4.826;2023-05-15T00:09:07;53.53;51.67;55.23;;
66458;Laerm;56835;52.198;4.826;2023-05-15T00:09:17;53.56;51.92;55.24;;
66458;Laerm;56835;52.198;4.826;2023-05-15T00:09:28;53.48;51.77;55.38;;
66458;Laerm;56835;52.198;4.826;2023-05-15T00:09:38;53.51;50.88;55.16;;
66458;Laerm;56835;52.198;4.826;2023-05-15T00:09:48;53.48;51.91;54.94;;
66458;Laerm;56835;52.198;4.826;2023-05-15T00:09:58;53.52;51.94;55.06;;
66458;Laerm;56835;52.198;4.826;2023-05-15T00:10:09;53.51;51.74;54.79;;
66458;Laerm;56835;52.198;4.826;2023-05-15T00:10:19;53.55;51.65;55.01;;
66458;Laerm;56835;52.198;4.826;2023-05-15T00:10:29;53.51;51.92;54.74;;
66458;Laerm;56835;52.198;4.826;2023-05-15T00:10:40;53.50;51.81;55.28;;
66458;Laerm;56835;52.198;4.826;2023-05-15T00:10:50;53.48;51.70;55.13;;
66458;Laerm;56835;52.198;4.826;2023-05-15T00:11:00;53.57;51.90;54.96;;
66458;Laerm;56835;52.198;4.826;2023-05-15T00:11:11;53.46;51.80;54.74;;
66458;Laerm;56835;52.198;4.826;2023-05-15T00:11:21;53.50;51.52;55.18;;
66458;Laerm;56835;52.198;4.826;2023-05-15T00:11:32;53.47;51.88;54.87;;
66458;Laerm;56835;52.198;4.826;2023-05-15T00:11:42;53.52;51.75;54.83;;
66458;Laerm;56835;52.198;4.826;2023-05-15T00:11:53;53.60;52.12;54.70;;
66458;Laerm;56835;52.198;4.826;2023-05-15T00:12:03;53.62;51.97;54.97;;
66458;Laerm;56835;52.198;4.826;2023-05-15T00:12:13;53.47;51.97;54.91;;
66458;Laerm;56835;52.198;4.826;2023-05-15T00:12:24;53.55;51.82;54.88;;
66458;Laerm;56835;52.198;4.826;2023-05-15T00:12:34;53.53;51.46;55.11;;
66458;Laerm;56835;52.198;4.826;2023-05-15T00:12:45;53.50;51.90;55.59;;
66458;Laerm;56835;52.198;4.826;2023-05-15T00:12:56;53.52;52.22;54.70;;
66458;Laerm;56835;52.198;4.826;2023-05-15T00:13:06;53.52;52.04;55.35;;
66458;Laerm;56835;52.198;4.826;2023-05-15T00:13:16;53.48;51.37;55.17;;
66458;Laerm;56835;52.198;4.826;2023-05-15T00:13:28;53.56;51.39;54.92;;
66458;Laerm;56835;52.198;4.826;2023-05-15T00:13:38;53.61;51.87;54.88;;
66458;Laerm;56835;52.198;4.826;2023-05-15T00:13:49;53.58;52.16;55.24;;
66458;Laerm;56835;52.198;4.826;2023-05-15T00:13:59;53.50;51.92;54.78;;
66458;Laerm;56835;52.198;4.826;2023-05-15T00:14:09;53.46;51.75;55.15;;
66458;Laerm;56835;52.198;4.826;2023-05-15T00:14:19;53.50;52.09;54.79;;
66458;Laerm;56835;52.198;4.826;2023-05-15T00:14:30;53.57;52.10;54.74;;
66458;Laerm;56835;52.198;4.826;2023-05-15T00:14:40;53.55;51.91;54.84;;
66458;Laerm;56835;52.198;4.826;2023-05-15T00:14:50;53.53;51.94;55.06;;
66458;Laerm;56835;52.198;4.826;2023-05-15T00:15:00;53.46;52.00;54.81;;
66458;Laerm;56835;52.198;4.826;2023-05-15T00:15:11;53.51;51.80;55.62;;
66458;Laerm;56835;52.198;4.826;2023-05-15T00:15:21;53.51;52.18;54.93;;
66458;Laerm;56835;52.198;4.826;2023-05-15T00:15:31;53.56;52.08;54.73;;
66458;Laerm;56835;52.198;4.826;2023-05-15T00:15:41;53.61;52.10;55.00;;
66458;Laerm;56835;52.198;4.826;2023-05-15T00:15:52;53.56;51.57;55.08;;
66458;Laerm;56835;52.198;4.826;2023-05-15T00:16:02;53.57;52.18;55.09;;
66458;Laerm;56835;52.198;4.826;2023-05-15T00:16:12;53.46;51.11;54.75;;
66458;Laerm;56835;52.198;4.826;2023-05-15T00:16:23;53.63;52.24;54.82;;
66458;Laerm;56835;52.198;4.826;2023-05-15T00:16:33;53.62;51.97;55.13;;
66458;Laerm;56835;52.198;4.826;2023-05-15T00:16:43;53.51;51.85;54.78;;
66458;Laerm;56835;52.198;4.826;2023-05-15T00:16:53;53.54;51.59;54.81;;
66458;Laerm;56835;52.198;4.826;2023-05-15T00:17:04;53.53;51.56;54.79;;
66458;Laerm;56835;52.198;4.826;2023-05-15T00:17:15;53.55;51.96;54.82;;
66458;Laerm;56835;52.198;4.826;2023-05-15T00:17:25;53.53;51.88;54.78;;
66458;Laerm;56835;52.198;4.826;2023-05-15T00:17:35;53.54;51.60;54.90;;
66458;Laerm;56835;52.198;4.826;2023-05-15T00:17:46;53.50;51.82;54.84;;
66458;Laerm;56835;52.198;4.826;2023-05-15T00:17:56;53.50;51.94;54.93;;
66458;Laerm;56835;52.198;4.826;2023-05-15T00:18:06;53.54;51.14;55.12;;
66458;Laerm;56835;52.198;4.826;2023-05-15T00:18:16;53.54;52.30;54.84;;
66458;Laerm;56835;52.198;4.826;2023-05-15T00:18:27;53.57;51.80;55.12;;
66458;Laerm;56835;52.198;4.826;2023-05-15T00:18:37;53.51;52.06;55.09;;
66458;Laerm;56835;52.198;4.826;2023-05-15T00:18:47;53.48;52.02;55.15;;
66458;Laerm;56835;52.198;4.826;2023-05-15T00:18:58;53.59;52.00;54.91;;
66458;Laerm;56835;52.198;4.826;2023-05-15T00:19:08;53.55;52.33;54.85;;
66458;Laerm;56835;52.198;4.826;2023-05-15T00:19:18;53.50;51.89;54.71;;
66458;Laerm;56835;52.198;4.826;2023-05-15T00:19:28;53.55;52.11;55.02;;
66458;Laerm;56835;52.198;4.826;2023-05-15T00:19:39;53.48;51.33;54.86;;
66458;Laerm;56835;52.198;4.826;2023-05-15T00:19:49;53.52;51.90;55.43;;
66458;Laerm;56835;52.198;4.826;2023-05-15T00:19:59;53.53;51.99;54.92;;
66458;Laerm;56835;52.198;4.826;2023-05-15T00:20:10;53.60;51.74;54.97;;
66458;Laerm;56835;52.198;4.826;2023-05-15T00:20:20;53.52;51.92;55.37;;
66458;Laerm;56835;52.198;4.826;2023-05-15T00:20:30;53.55;51.72;55.29;;
66458;Laerm;56835;52.198;4.826;2023-05-15T00:20:41;53.53;52.14;55.21;;
66458;Laerm;56835;52.198;4.826;2023-05-15T00:20:51;53.55;51.81;54.82;;
66458;Laerm;56835;52.198;4.826;2023-05-15T00:21:02;53.49;52.04;54.71;;
66458;Laerm;56835;52.198;4.826;2023-05-15T00:21:12;53.54;51.79;54.88;;
66458;Laerm;56835;52.198;4.826;2023-05-15T00:21:23;53.56;51.60;54.85;;
66458;Laerm;56835;52.198;4.826;2023-05-15T00:21:33;53.57;51.57;55.24;;
66458;Laerm;56835;52.198;4.826;2023-05-15T00:21:43;53.55;51.95;55.13;;
66458;Laerm;56835;52.198;4.826;2023-05-15T00:21:53;53.54;51.48;55.04;;
66458;Laerm;56835;52.198;4.826;2023-05-15T00:22:04;53.54;52.01;54.87;;
66458;Laerm;56835;52.198;4.826;2023-05-15T00:22:14;53.52;51.93;54.79;;
66458;Laerm;56835;52.198;4.826;2023-05-15T00:22:25;53.56;52.11;54.92;;
66458;Laerm;56835;52.198;4.826;2023-05-15T00:22:35;53.52;51.84;54.99;;
66458;Laerm;56835;52.198;4.826;2023-05-15T00:22:45;53.51;51.73;54.85;;
66458;Laerm;56835;52.198;4.826;2023-05-15T00:22:55;53.63;51.73;54.99;;
66458;Laerm;56835;52.198;4.826;2023-05-15T00:23:07;53.53;52.13;54.95;;
66458;Laerm;56835;52.198;4.826;2023-05-15T00:23:17;53.57;51.80;55.07;;
66458;Laerm;56835;52.198;4.826;2023-05-15T00:23:27;53.49;51.81;55.16;;
66458;Laerm;56835;52.198;4.826;2023-05-15T00:23:38;53.58;51.74;54.96;;
66458;Laerm;56835;52.198;4.826;2023-05-15T00:23:48;53.60;51.94;55.07;;
66458;Laerm;56835;52.198;4.826;2023-05-15T00:23:58;53.61;52.31;55.00;;
66458;Laerm;56835;52.198;4.826;2023-05-15T00:24:09;53.58;51.91;54.94;;
66458;Laerm;56835;52.198;4.826;2023-05-15T00:24:20;53.58;51.68;54.96;;
66458;Laerm;56835;52.198;4.826;2023-05-15T00:24:30;53.54;51.89;55.14;;
66458;Laerm;56835;52.198;4.826;2023-05-15T00:24:40;53.57;51.41;54.85;;
66458;Laerm;56835;52.198;4.826;2023-05-15T00:24:51;53.51;52.29;54.97;;
66458;Laerm;56835;52.198;4.826;2023-05-15T00:25:01;53.52;51.84;54.89;;
66458;Laerm;56835;52.198;4.826;2023-05-15T00:25:12;53.59;52.04;55.07;;
66458;Laerm;56835;52.198;4.826;2023-05-15T00:25:22;53.54;51.48;55.09;;
66458;Laerm;56835;52.198;4.826;2023-05-15T00:25:32;53.57;51.75;54.75;;
66458;Laerm;56835;52.198;4.826;2023-05-15T00:25:42;53.60;52.02;55.32;;
66458;Laerm;56835;52.198;4.826;2023-05-15T00:25:53;53.60;51.83;55.12;;
66458;Laerm;56835;52.198;4.826;2023-05-15T00:26:03;53.58;52.04;55.03;;
66458;Laerm;56835;52.198;4.826;2023-05-15T00:26:13;53.62;52.02;54.90;;
66458;Laerm;56835;52.198;4.826;2023-05-15T00:26:24;53.58;51.72;54.89;;
66458;Laerm;56835;52.198;4.826;2023-05-15T00:26:35;53.58;51.49;55.11;;
66458;Laerm;56835;52.198;4.826;2023-05-15T00:26:46;53.59;51.94;55.32;;
66458;Laerm;56835;52.198;4.826;2023-05-15T00:26:56;53.61;51.85;55.07;;
66458;Laerm;56835;52.198;4.826;2023-05-15T00:27:06;53.57;51.82;54.94;;
66458;Laerm;56835;52.198;4.826;2023-05-15T00:27:16;53.56;52.09;54.98;;
66458;Laerm;56835;52.198;4.826;2023-05-15T00:27:27;53.62;51.72;55.03;;
66458;Laerm;56835;52.198;4.826;2023-05-15T00:27:37;53.65;51.05;54.88;;
66458;Laerm;56835;52.198;4.826;2023-05-15T00:27:47;53.60;52.11;55.04;;
66458;Laerm;56835;52.198;4.826;2023-05-15T00:27:57;53.57;51.94;55.01;;
66458;Laerm;56835;52.198;4.826;2023-05-15T00:28:08;53.53;51.34;54.91;;
66458;Laerm;56835;52.198;4.826;2023-05-15T00:28:18;53.64;52.06;54.99;;
66458;Laerm;56835;52.198;4.826;2023-05-15T00:28:28;53.57;51.74;54.67;;
66458;Laerm;56835;52.198;4.826;2023-05-15T00:28:38;53.62;51.74;54.79;;
66458;Laerm;56835;52.198;4.826;2023-05-15T00:28:49;53.63;52.04;54.83;;
66458;Laerm;56835;52.198;4.826;2023-05-15T00:28:59;53.53;52.06;55.12;;
66458;Laerm;56835;52.198;4.826;2023-05-15T00:29:10;53.58;51.71;54.86;;
66458;Laerm;56835;52.198;4.826;2023-05-15T00:29:20;53.59;52.17;54.88;;
66458;Laerm;56835;52.198;4.826;2023-05-15T00:29:30;53.57;51.56;54.72;;
66458;Laerm;56835;52.198;4.826;2023-05-15T00:29:40;53.57;51.55;54.80;;
66458;Laerm;56835;52.198;4.826;2023-05-15T00:29:51;53.59;52.04;55.08;;
66458;Laerm;56835;52.198;4.826;2023-05-15T00:30:01;53.56;51.77;54.86;;
66458;Laerm;56835;52.198;4.826;2023-05-15T00:30:12;53.53;50.98;54.82;;
66458;Laerm;56835;52.198;4.826;2023-05-15T00:30:22;53.63;51.77;54.99;;
66458;Laerm;56835;52.198;4.826;2023-05-15T00:30:32;53.60;52.24;54.98;;
66458;Laerm;56835;52.198;4.826;2023-05-15T00:30:43;53.57;51.63;54.92;;
66458;Laerm;56835;52.198;4.826;2023-05-15T00:30:53;53.62;51.62;54.98;;
66458;Laerm;56835;52.198;4.826;2023-05-15T00:31:03;53.59;51.97;54.86;;
66458;Laerm;56835;52.198;4.826;2023-05-15T00:31:14;53.64;51.83;54.94;;
66458;Laerm;56835;52.198;4.826;2023-05-15T00:31:24;53.65;51.85;55.34;;
66458;Laerm;56835;52.198;4.826;2023-05-15T00:31:34;53.65;51.71;55.19;;
66458;Laerm;56835;52.198;4.826;2023-05-15T00:31:45;53.63;51.86;55.30;;
66458;Laerm;56835;52.198;4.826;2023-05-15T00:31:55;53.61;51.81;54.83;;
66458;Laerm;56835;52.198;4.826;2023-05-15T00:32:05;53.59;51.96;54.86;;
66458;Laerm;56835;52.198;4.826;2023-05-15T00:32:16;53.59;51.96;54.86;;
66458;Laerm;56835;52.198;4.826;2023-05-15T00:32:26;53.60;52.00;54.91;;
66458;Laerm;56835;52.198;4.826;2023-05-15T00:32:36;53.53;52.12;54.79;;
66458;Laerm;56835;52.198;4.826;2023-05-15T00:32:46;53.61;51.90;55.21;;
66458;Laerm;56835;52.198;4.826;2023-05-15T00:32:57;53.62;51.79;54.97;;
66458;Laerm;56835;52.198;4.826;2023-05-15T00:33:07;53.59;51.83;55.06;;
66458;Laerm;56835;52.198;4.826;2023-05-15T00:33:17;53.60;51.78;54.91;;
66458;Laerm;56835;52.198;4.826;2023-05-15T00:33:28;53.63;51.90;55.14;;
66458;Laerm;56835;52.198;4.826;2023-05-15T00:33:38;53.66;51.68;55.06;;
66458;Laerm;56835;52.198;4.826;2023-05-15T00:33:48;53.67;51.71;54.80;;
66458;Laerm;56835;52.198;4.826;2023-05-15T00:33:58;53.59;51.96;54.90;;
66458;Laerm;56835;52.198;4.826;2023-05-15T00:34:09;53.55;52.04;54.85;;
66458;Laerm;56835;52.198;4.826;2023-05-15T00:34:20;53.61;51.83;55.29;;
66458;Laerm;56835;52.198;4.826;2023-05-15T00:34:30;53.63;51.52;55.01;;
66458;Laerm;56835;52.198;4.826;2023-05-15T00:34:40;53.65;51.83;55.03;;
66458;Laerm;56835;52.198;4.826;2023-05-15T00:34:51;53.68;51.92;55.18;;
66458;Laerm;56835;52.198;4.826;2023-05-15T00:35:01;53.66;52.29;54.93;;
66458;Laerm;56835;52.198;4.826;2023-05-15T00:35:11;53.60;52.04;55.14;;
66458;Laerm;56835;52.198;4.826;2023-05-15T00:35:22;53.68;52.02;55.00;;
66458;Laerm;56835;52.198;4.826;2023-05-15T00:35:32;53.57;51.83;55.15;;
66458;Laerm;56835;52.198;4.826;2023-05-15T00:35:42;53.60;51.84;54.80;;
66458;Laerm;56835;52.198;4.826;2023-05-15T00:35:52;53.64;52.00;55.00;;
66458;Laerm;56835;52.198;4.826;2023-05-15T00:36:03;53.62;51.67;54.80;;
66458;Laerm;56835;52.198;4.826;2023-05-15T00:36:13;53.62;51.86;55.31;;
66458;Laerm;56835;52.198;4.826;2023-05-15T00:36:23;53.68;52.00;55.05;;
66458;Laerm;56835;52.198;4.826;2023-05-15T00:36:35;53.62;52.10;54.98;;
66458;Laerm;56835;52.198;4.826;2023-05-15T00:36:45;53.41;51.86;54.72;;
66458;Laerm;56835;52.198;4.826;2023-05-15T00:36:55;53.61;51.61;55.03;;
66458;Laerm;56835;52.198;4.826;2023-05-15T00:37:05;53.57;51.79;55.07;;
66458;Laerm;56835;52.198;4.826;2023-05-15T00:37:17;53.64;51.98;55.36;;
66458;Laerm;56835;52.198;4.826;2023-05-15T00:37:27;53.60;51.70;55.07;;
66458;Laerm;56835;52.198;4.826;2023-05-15T00:37:38;53.57;51.42;54.93;;
66458;Laerm;56835;52.198;4.826;2023-05-15T00:37:48;53.67;52.18;54.89;;
66458;Laerm;56835;52.198;4.826;2023-05-15T00:37:58;53.56;52.06;54.84;;
66458;Laerm;56835;52.198;4.826;2023-05-15T00:38:08;53.56;51.79;54.88;;
66458;Laerm;56835;52.198;4.826;2023-05-15T00:38:19;53.60;51.50;55.00;;
66458;Laerm;56835;52.198;4.826;2023-05-15T00:38:29;53.64;51.82;54.86;;
66458;Laerm;56835;52.198;4.826;2023-05-15T00:38:39;53.65;52.10;54.88;;
66458;Laerm;56835;52.198;4.826;2023-05-15T00:38:50;53.63;51.81;54.96;;
66458;Laerm;56835;52.198;4.826;2023-05-15T00:39:00;53.62;52.16;54.97;;
66458;Laerm;56835;52.198;4.826;2023-05-15T00:39:11;53.58;52.10;54.71;;
66458;Laerm;56835;52.198;4.826;2023-05-15T00:39:21;53.60;51.79;55.00;;
66458;Laerm;56835;52.198;4.826;2023-05-15T00:39:31;53.60;52.12;54.96;;
66458;Laerm;56835;52.198;4.826;2023-05-15T00:39:42;53.65;51.73;55.22;;
66458;Laerm;56835;52.198;4.826;2023-05-15T00:39:52;53.59;52.11;54.82;;
66458;Laerm;56835;52.198;4.826;2023-05-15T00:40:02;53.67;51.80;55.12;;
66458;Laerm;56835;52.198;4.826;2023-05-15T00:40:17;53.59;51.64;54.83;;
66458;Laerm;56835;52.198;4.826;2023-05-15T00:40:29;53.72;52.24;55.05;;
66458;Laerm;56835;52.198;4.826;2023-05-15T00:40:40;53.57;52.12;54.84;;
66458;Laerm;56835;52.198;4.826;2023-05-15T00:40:51;53.62;51.28;55.12;;
66458;Laerm;56835;52.198;4.826;2023-05-15T00:41:02;53.73;51.77;55.10;;
66458;Laerm;56835;52.198;4.826;2023-05-15T00:41:13;53.63;52.02;55.44;;
66458;Laerm;56835;52.198;4.826;2023-05-15T00:41:24;53.61;52.06;55.04;;
66458;Laerm;56835;52.198;4.826;2023-05-15T00:41:37;53.53;51.56;55.11;;
66458;Laerm;56835;52.198;4.826;2023-05-15T00:41:49;53.38;51.92;55.24;;
66458;Laerm;56835;52.198;4.826;2023-05-15T00:42:01;53.37;51.24;54.72;;
66458;Laerm;56835;52.198;4.826;2023-05-15T00:42:11;53.37;51.34;54.85;;
66458;Laerm;56835;52.198;4.826;2023-05-15T00:42:22;53.37;51.83;54.93;;
66458;Laerm;56835;52.198;4.826;2023-05-15T00:42:33;53.42;52.06;55.03;;
66458;Laerm;56835;52.198;4.826;2023-05-15T00:42:44;53.61;51.90;54.96;;
66458;Laerm;56835;52.198;4.826;2023-05-15T00:42:55;53.65;51.97;55.01;;
66458;Laerm;56835;52.198;4.826;2023-05-15T00:43:07;53.67;52.34;55.04;;
66458;Laerm;56835;52.198;4.826;2023-05-15T00:43:17;53.65;52.07;54.96;;
66458;Laerm;56835;52.198;4.826;2023-05-15T00:43:28;53.63;52.00;54.95;;
66458;Laerm;56835;52.198;4.826;2023-05-15T00:43:39;53.64;51.99;55.49;;
66458;Laerm;56835;52.198;4.826;2023-05-15T00:43:49;53.66;52.16;54.91;;
66458;Laerm;56835;52.198;4.826;2023-05-15T00:44:01;53.64;51.91;55.13;;
66458;Laerm;56835;52.198;4.826;2023-05-15T00:44:11;53.66;52.13;55.02;;
66458;Laerm;56835;52.198;4.826;2023-05-15T00:44:21;53.58;51.96;55.00;;
66458;Laerm;56835;52.198;4.826;2023-05-15T00:44:32;53.57;51.84;55.04;;
66458;Laerm;56835;52.198;4.826;2023-05-15T00:44:43;53.47;51.88;55.00;;
66458;Laerm;56835;52.198;4.826;2023-05-15T00:44:54;53.64;51.92;55.20;;
66458;Laerm;56835;52.198;4.826;2023-05-15T00:45:05;53.65;52.25;55.67;;
66458;Laerm;56835;52.198;4.826;2023-05-15T00:45:17;53.65;52.03;55.27;;
66458;Laerm;56835;52.198;4.826;2023-05-15T00:45:28;53.62;51.70;54.85;;
66458;Laerm;56835;52.198;4.826;2023-05-15T00:45:39;53.63;51.86;55.13;;
66458;Laerm;56835;52.198;4.826;2023-05-15T00:45:51;53.72;52.17;54.94;;
66458;Laerm;56835;52.198;4.826;2023-05-15T00:46:02;53.70;51.86;55.20;;
66458;Laerm;56835;52.198;4.826;2023-05-15T00:46:13;53.69;52.16;54.96;;
66458;Laerm;56835;52.198;4.826;2023-05-15T00:46:23;53.67;52.17;55.08;;
66458;Laerm;56835;52.198;4.826;2023-05-15T00:46:34;53.69;52.03;55.01;;
66458;Laerm;56835;52.198;4.826;2023-05-15T00:46:45;53.73;52.08;55.02;;
66458;Laerm;56835;52.198;4.826;2023-05-15T00:46:56;53.69;51.79;55.33;;
66458;Laerm;56835;52.198;4.826;2023-05-15T00:47:06;53.64;52.18;55.04;;
66458;Laerm;56835;52.198;4.826;2023-05-15T00:47:19;53.63;51.85;54.98;;
66458;Laerm;56835;52.198;4.826;2023-05-15T00:47:30;53.72;52.00;55.29;;
66458;Laerm;56835;52.198;4.826;2023-05-15T00:47:41;53.70;52.07;55.23;;
66458;Laerm;56835;52.198;4.826;2023-05-15T00:47:52;53.65;51.53;55.25;;
66458;Laerm;56835;52.198;4.826;2023-05-15T00:48:03;53.61;52.04;55.09;;
66458;Laerm;56835;52.198;4.826;2023-05-15T00:48:14;53.64;52.05;54.96;;
66458;Laerm;56835;52.198;4.826;2023-05-15T00:48:25;53.63;51.61;54.92;;
66458;Laerm;56835;52.198;4.826;2023-05-15T00:48:36;53.64;52.05;55.31;;
66458;Laerm;56835;52.198;4.826;2023-05-15T00:48:48;53.62;51.66;54.93;;
66458;Laerm;56835;52.198;4.826;2023-05-15T00:48:59;53.63;51.83;55.19;;
66458;Laerm;56835;52.198;4.826;2023-05-15T00:49:09;53.64;51.76;54.99;;
66458;Laerm;56835;52.198;4.826;2023-05-15T00:49:22;53.67;51.16;55.19;;
66458;Laerm;56835;52.198;4.826;2023-05-15T00:49:33;53.63;51.69;54.91;;
66458;Laerm;56835;52.198;4.826;2023-05-15T00:49:44;53.62;52.16;55.04;;
66458;Laerm;56835;52.198;4.826;2023-05-15T00:49:55;53.61;52.03;55.10;;
66458;Laerm;56835;52.198;4.826;2023-05-15T00:50:07;53.65;51.96;55.14;;
66458;Laerm;56835;52.198;4.826;2023-05-15T00:50:17;53.64;51.92;54.96;;
66458;Laerm;56835;52.198;4.826;2023-05-15T00:50:28;53.62;51.76;54.78;;
66458;Laerm;56835;52.198;4.826;2023-05-15T00:50:39;53.62;51.60;54.85;;
66458;Laerm;56835;52.198;4.826;2023-05-15T00:50:50;53.64;52.15;55.10;;
66458;Laerm;56835;52.198;4.826;2023-05-15T00:51:00;53.61;52.03;55.08;;
66458;Laerm;56835;52.198;4.826;2023-05-15T00:51:11;53.61;51.90;54.98;;
66458;Laerm;56835;52.198;4.826;2023-05-15T00:51:21;53.58;51.97;54.79;;
66458;Laerm;56835;52.198;4.826;2023-05-15T00:51:32;53.69;52.07;54.94;;
66458;Laerm;56835;52.198;4.826;2023-05-15T00:51:42;53.61;52.03;55.33;;
66458;Laerm;56835;52.198;4.826;2023-05-15T00:51:52;53.66;52.44;55.10;;
66458;Laerm;56835;52.198;4.826;2023-05-15T00:52:03;53.64;52.09;54.86;;
66458;Laerm;56835;52.198;4.826;2023-05-15T00:52:17;53.56;51.70;54.74;;
66458;Laerm;56835;52.198;4.826;2023-05-15T00:52:28;53.58;52.09;54.75;;
66458;Laerm;56835;52.198;4.826;2023-05-15T00:52:39;53.62;52.08;55.03;;
66458;Laerm;56835;52.198;4.826;2023-05-15T00:52:49;53.65;52.11;55.51;;
66458;Laerm;56835;52.198;4.826;2023-05-15T00:52:59;53.68;51.51;55.11;;
66458;Laerm;56835;52.198;4.826;2023-05-15T00:53:10;53.62;51.87;55.27;;
66458;Laerm;56835;52.198;4.826;2023-05-15T00:53:21;53.61;51.69;54.90;;
66458;Laerm;56835;52.198;4.826;2023-05-15T00:53:32;53.57;51.91;54.82;;
66458;Laerm;56835;52.198;4.826;2023-05-15T00:53:42;53.64;52.03;55.07;;
66458;Laerm;56835;52.198;4.826;2023-05-15T00:53:53;53.69;51.96;54.92;;
66458;Laerm;56835;52.198;4.826;2023-05-15T00:54:05;53.65;52.24;55.01;;
66458;Laerm;56835;52.198;4.826;2023-05-15T00:54:16;53.65;52.19;54.79;;
66458;Laerm;56835;52.198;4.826;2023-05-15T00:54:26;53.71;52.07;55.16;;
66458;Laerm;56835;52.198;4.826;2023-05-15T00:54:37;53.67;52.21;55.41;;
66458;Laerm;56835;52.198;4.826;2023-05-15T00:54:47;53.66;52.02;55.08;;
66458;Laerm;56835;52.198;4.826;2023-05-15T00:54:57;53.71;52.09;55.52;;
66458;Laerm;56835;52.198;4.826;2023-05-15T00:55:08;53.65;51.53;55.10;;
66458;Laerm;56835;52.198;4.826;2023-05-15T00:55:18;53.67;51.86;54.98;;
66458;Laerm;56835;52.198;4.826;2023-05-15T00:55:28;53.60;51.90;55.33;;
66458;Laerm;56835;52.198;4.826;2023-05-15T00:55:40;53.59;52.19;54.94;;
66458;Laerm;56835;52.198;4.826;2023-05-15T00:55:51;53.57;51.65;54.89;;
66458;Laerm;56835;52.198;4.826;2023-05-15T00:56:03;53.67;52.10;55.38;;
66458;Laerm;56835;52.198;4.826;2023-05-15T00:56:14;53.62;51.76;54.87;;
66458;Laerm;56835;52.198;4.826;2023-05-15T00:56:26;53.66;52.05;55.14;;
66458;Laerm;56835;52.198;4.826;2023-05-15T00:56:39;53.60;51.66;54.98;;
66458;Laerm;56835;52.198;4.826;2023-05-15T00:56:51;53.58;51.91;54.79;;
66458;Laerm;56835;52.198;4.826;2023-05-15T00:57:01;53.61;52.14;54.82;;
66458;Laerm;56835;52.198;4.826;2023-05-15T00:57:14;53.65;51.54;55.19;;
66458;Laerm;56835;52.198;4.826;2023-05-15T00:57:24;53.66;52.23;55.48;;
66458;Laerm;56835;52.198;4.826;2023-05-15T00:57:36;53.61;51.80;55.11;;
66458;Laerm;56835;52.198;4.826;2023-05-15T00:57:47;53.62;51.85;54.78;;
66458;Laerm;56835;52.198;4.826;2023-05-15T00:57:57;53.73;51.92;55.18;;
66458;Laerm;56835;52.198;4.826;2023-05-15T00:58:09;53.69;51.64;55.06;;
66458;Laerm;56835;52.198;4.826;2023-05-15T00:58:20;53.66;52.12;55.22;;
66458;Laerm;56835;52.198;4.826;2023-05-15T00:58:31;53.65;51.88;54.77;;
66458;Laerm;56835;52.198;4.826;2023-05-15T00:58:42;53.59;51.91;54.89;;
66458;Laerm;56835;52.198;4.826;2023-05-15T00:58:54;53.55;52.07;54.86;;
66458;Laerm;56835;52.198;4.826;2023-05-15T00:59:06;53.62;51.83;54.95;;
66458;Laerm;56835;52.198;4.826;2023-05-15T00:59:17;53.74;52.35;55.23;;